Time;durP1;ratioP1;P1;durP2;ratioP2;P2;SDS_P1;SDS_P2;PMS_P1;PMS_P2;Temp;Humidity;BMP_temperature;BMP_pressure;BME280_temperature;BME280_humidity;BME280_pressure;Samples;Min_cycle;Max_cycle;Signal;HPM_P1;HPM_P2
2023/06/09 00:02:09;;;;;;;5.53;4.00;;;;;;;24.24;54.61;99859.19;5027303;28;20723;-68
2023/06/09 00:04:35;;;;;;;6.47;4.80;;;;;;;24.24;54.48;99864.97;5027648;28;20179;-68
2023/06/09 00:07:02;;;;;;;6.33;4.13;;;;;;;24.24;54.40;99864.97;5013142;28;20189;-68
2023/06/09 00:09:29;;;;;;;8.23;5.10;;;;;;;24.23;54.78;99872.00;5021056;28;20270;-68
2023/06/09 00:11:54;;;;;;;7.40;5.10;;;;;;;24.22;54.49;99862.50;5026165;28;20526;-68
2023/06/09 00:14:20;;;;;;;5.90;4.87;;;;;;;24.22;54.47;99856.72;5023363;28;21155;-68
2023/06/09 00:16:46;;;;;;;5.83;4.20;;;;;;;24.22;54.64;99858.78;5026328;28;20575;-68
2023/06/09 00:19:13;;;;;;;7.03;4.30;;;;;;;24.22;54.68;99856.72;5024928;28;20223;-68
2023/06/09 00:21:39;;;;;;;6.50;4.57;;;;;;;24.23;54.66;99860.44;5009485;28;20475;-68
2023/06/09 00:24:05;;;;;;;5.13;3.83;;;;;;;24.22;54.62;99855.91;4993126;28;20529;-68
2023/06/09 00:26:30;;;;;;;8.80;4.80;;;;;;;24.20;54.73;99856.34;5028407;28;20266;-69
2023/06/09 00:28:56;;;;;;;5.00;4.17;;;;;;;24.20;54.87;99853.47;5018194;28;20846;-69
2023/06/09 00:31:21;;;;;;;4.60;3.90;;;;;;;24.20;54.72;99856.34;5008979;28;20531;-68
2023/06/09 00:33:47;;;;;;;6.83;4.40;;;;;;;24.18;54.84;99861.72;5020606;28;20242;-68
2023/06/09 00:36:12;;;;;;;5.60;4.03;;;;;;;24.19;54.62;99857.59;5006971;28;20181;-68
2023/06/09 00:38:37;;;;;;;6.17;4.50;;;;;;;24.19;54.59;99854.69;5007478;28;20165;-68
2023/06/09 00:41:03;;;;;;;5.50;4.10;;;;;;;24.19;54.89;99842.34;5018326;28;20208;-68
2023/06/09 00:43:28;;;;;;;7.97;5.00;;;;;;;24.18;54.60;99844.41;5022595;28;20204;-68
2023/06/09 00:45:54;;;;;;;6.77;4.97;;;;;;;24.18;54.50;99844.41;5023942;28;20196;-68
2023/06/09 00:48:19;;;;;;;5.70;4.20;;;;;;;24.17;54.64;99848.56;5028435;28;20191;-68
2023/06/09 00:50:45;;;;;;;5.50;4.53;;;;;;;24.16;54.84;99846.91;5026660;28;20210;-68
2023/06/09 00:53:10;;;;;;;6.80;4.63;;;;;;;24.17;54.88;99847.72;5013212;28;20192;-68
2023/06/09 00:55:38;;;;;;;6.90;4.67;;;;;;;24.16;54.80;99851.84;5002722;28;20184;-68
2023/06/09 00:58:03;;;;;;;6.30;4.20;;;;;;;24.16;54.72;99851.84;5021235;28;20586;-68
2023/06/09 01:00:40;;;;;;;5.50;4.60;;;;;;;24.16;54.79;99848.97;5007384;28;20435;-68
2023/06/09 01:03:09;;;;;;;5.37;4.67;;;;;;;24.16;54.76;99846.09;5024826;28;20199;-68
2023/06/09 01:05:39;;;;;;;6.57;4.47;;;;;;;24.16;54.74;99857.63;5026528;28;20435;-68
2023/06/09 01:08:22;;;;;;;5.90;4.43;;;;;;;24.15;54.81;99851.06;5022306;28;20489;-68
2023/06/09 01:11:09;;;;;;;7.00;5.00;;;;;;;24.15;54.72;99859.72;5028360;28;20943;-68
2023/06/09 01:13:59;;;;;;;6.20;4.60;;;;;;;24.14;54.60;99848.59;5029572;28;20443;-68
2023/06/09 01:16:41;;;;;;;6.17;4.40;;;;;;;24.12;54.74;99854.78;5026891;28;20810;-68
2023/06/09 01:19:11;;;;;;;5.27;3.87;;;;;;;24.12;55.00;99851.06;5011230;28;20477;-69
2023/06/09 01:21:41;;;;;;;7.93;4.20;;;;;;;24.12;54.94;99857.69;5008530;28;20459;-68
2023/06/09 01:24:32;;;;;;;6.07;4.53;;;;;;;24.12;54.70;99851.91;5026067;28;20438;-69
2023/06/09 01:26:59;;;;;;;7.80;4.60;;;;;;;24.12;54.47;99851.06;5027178;28;20907;-68
2023/06/09 01:29:25;;;;;;;6.80;4.57;;;;;;;24.11;54.71;99844.50;4993496;28;20439;-68
2023/06/09 01:31:50;;;;;;;6.03;4.23;;;;;;;24.11;54.62;99847.41;4990745;28;20828;-68
2023/06/09 01:34:16;;;;;;;5.97;4.40;;;;;;;24.11;54.66;99843.69;5011386;28;20197;-68
2023/06/09 01:36:42;;;;;;;5.60;4.03;;;;;;;24.11;54.46;99843.69;5006080;28;20161;-68
2023/06/09 01:39:07;;;;;;;6.90;4.77;;;;;;;24.09;54.49;99838.34;5009937;28;20188;-68
2023/06/09 01:41:33;;;;;;;6.23;4.60;;;;;;;24.10;54.42;99842.03;5023151;28;20465;-68
2023/06/09 01:43:58;;;;;;;6.50;4.83;;;;;;;24.09;55.07;99841.22;5031540;28;20179;-67
2023/06/09 01:46:24;;;;;;;7.07;4.77;;;;;;;24.09;54.78;99841.22;5025846;28;20192;-68
2023/06/09 01:49:08;;;;;;;5.43;4.20;;;;;;;24.07;54.49;99840.84;5031427;28;20165;-68
2023/06/09 01:51:40;;;;;;;7.10;4.80;;;;;;;24.07;54.83;99840.84;5021385;28;20573;-68
2023/06/09 01:54:08;;;;;;;6.43;5.20;;;;;;;24.07;54.73;99843.72;5010394;28;20467;-68
2023/06/09 01:56:42;;;;;;;6.67;4.57;;;;;;;24.06;54.48;99842.09;4994737;28;20441;-68
2023/06/09 01:59:09;;;;;;;5.80;4.63;;;;;;;24.05;54.64;99828.94;5009858;28;20497;-68
2023/06/09 02:01:35;;;;;;;6.80;4.33;;;;;;;24.07;54.60;99834.25;5009789;28;20459;-68
2023/06/09 02:04:01;;;;;;;7.37;5.03;;;;;;;24.05;54.38;99834.69;5011240;28;20458;-67
2023/06/09 02:06:27;;;;;;;5.63;4.27;;;;;;;24.05;54.45;99828.94;5014600;28;20262;-68
2023/06/09 02:08:52;;;;;;;5.77;4.07;;;;;;;24.06;54.77;99832.59;5029286;28;20949;-67
2023/06/09 02:11:18;;;;;;;5.33;4.40;;;;;;;24.05;54.55;99831.81;5032295;28;20615;-68
2023/06/09 02:13:45;;;;;;;5.97;4.00;;;;;;;24.04;54.53;99827.25;5025615;28;20219;-68
2023/06/09 02:16:11;;;;;;;6.50;4.77;;;;;;;24.04;54.37;99824.38;5027436;28;20315;-68
2023/06/09 02:18:37;;;;;;;6.30;4.37;;;;;;;24.04;54.86;99827.25;5030225;28;20391;-68
2023/06/09 02:21:02;;;;;;;7.20;4.30;;;;;;;24.03;54.60;99828.53;5026689;28;20303;-68
2023/06/09 02:23:28;;;;;;;6.40;4.50;;;;;;;24.03;54.63;99827.72;5011267;28;20509;-68
2023/06/09 02:25:53;;;;;;;5.80;4.33;;;;;;;24.03;54.50;99831.41;5013370;28;20177;-68
2023/06/09 02:28:18;;;;;;;5.90;4.50;;;;;;;24.03;54.63;99819.88;5012951;28;20304;-68
2023/06/09 02:30:44;;;;;;;5.17;4.13;;;;;;;24.01;54.72;99821.53;5009520;28;20170;-68
2023/06/09 02:33:10;;;;;;;7.00;5.00;;;;;;;24.01;54.67;99819.50;5010865;28;20199;-68
2023/06/09 02:35:35;;;;;;;5.80;4.37;;;;;;;24.00;54.26;99823.63;5007679;28;20519;-68
2023/06/09 02:38:05;;;;;;;6.90;4.90;;;;;;;24.00;54.72;99826.50;5011190;28;20732;-68
2023/06/09 02:40:31;;;;;;;5.63;4.30;;;;;;;24.00;54.74;99825.69;5009148;28;20633;-68
2023/06/09 02:42:57;;;;;;;6.90;4.37;;;;;;;23.99;54.61;99826.94;5012575;28;20439;-68
2023/06/09 02:45:22;;;;;;;5.63;4.20;;;;;;;24.00;54.64;99825.69;5028213;28;20442;-68
2023/06/09 02:47:48;;;;;;;6.00;4.40;;;;;;;23.99;54.49;99824.06;5011991;28;20177;-68
2023/06/09 02:50:13;;;;;;;7.27;4.10;;;;;;;23.98;54.52;99820.34;5029537;28;20184;-68
2023/06/09 02:52:39;;;;;;;5.23;4.00;;;;;;;23.99;54.64;99815.41;5011788;28;20668;-68
2023/06/09 02:55:06;;;;;;;6.37;4.37;;;;;;;23.98;54.38;99820.34;5014175;28;20186;-68
2023/06/09 02:57:31;;;;;;;6.57;4.53;;;;;;;23.97;54.71;99810.06;5020580;28;20922;-69
2023/06/09 02:59:58;;;;;;;7.13;4.20;;;;;;;23.97;54.62;99810.06;5019565;28;20473;-68
2023/06/09 03:02:24;;;;;;;5.97;4.40;;;;;;;23.97;54.63;99804.28;5024699;28;20212;-67
2023/06/09 03:04:52;;;;;;;6.10;4.33;;;;;;;23.96;54.73;99808.44;5030122;28;20421;-68
2023/06/09 03:07:17;;;;;;;5.83;4.20;;;;;;;23.96;54.50;99807.59;5027217;28;20502;-68
2023/06/09 03:09:43;;;;;;;6.63;4.67;;;;;;;23.95;54.80;99818.34;5012237;28;20562;-65
2023/06/09 03:12:09;;;;;;;6.43;4.67;;;;;;;23.95;54.21;99812.56;5018112;28;20176;-65
2023/06/09 03:14:35;;;;;;;6.10;4.60;;;;;;;23.95;54.41;99821.22;5030139;28;20184;-66
2023/06/09 03:17:00;;;;;;;6.10;4.50;;;;;;;23.95;54.52;99818.34;5025547;28;20793;-65
2023/06/09 03:19:27;;;;;;;6.27;4.10;;;;;;;23.94;54.62;99818.75;5007780;28;20189;-65
2023/06/09 03:21:53;;;;;;;5.53;4.07;;;;;;;23.93;54.60;99820.81;5009130;28;20193;-66
2023/06/09 03:24:19;;;;;;;7.93;4.60;;;;;;;23.94;54.68;99819.56;5017925;28;20525;-65
2023/06/09 03:26:45;;;;;;;5.57;4.30;;;;;;;23.94;54.45;99818.75;5028855;28;20947;-66
2023/06/09 03:29:11;;;;;;;6.77;5.27;;;;;;;23.93;54.43;99829.47;5023780;28;20443;-65
2023/06/09 03:31:37;;;;;;;6.10;5.03;;;;;;;23.93;54.96;99825.78;5028684;28;20973;-66
2023/06/09 03:34:02;;;;;;;6.17;4.30;;;;;;;23.92;54.58;99827.84;5027096;28;20169;-65
2023/06/09 03:36:28;;;;;;;6.10;4.40;;;;;;;23.92;54.63;99830.72;5008292;28;20200;-65
2023/06/09 03:38:54;;;;;;;6.60;4.20;;;;;;;23.91;55.00;99831.97;5025557;28;20206;-65
2023/06/09 03:41:21;;;;;;;8.50;5.20;;;;;;;23.92;54.47;99830.72;5029589;28;20945;-65
2023/06/09 03:43:46;;;;;;;6.77;4.40;;;;;;;23.91;54.42;99831.97;5031431;28;20179;-65
2023/06/09 03:46:12;;;;;;;6.83;4.70;;;;;;;23.91;54.68;99822.47;5028973;28;20406;-66
2023/06/09 03:48:39;;;;;;;6.20;4.33;;;;;;;23.91;55.01;99828.25;5027727;28;20577;-65
2023/06/09 03:51:05;;;;;;;6.83;4.70;;;;;;;23.91;54.89;99839.78;5017074;28;20265;-67
2023/06/09 03:53:30;;;;;;;6.20;4.43;;;;;;;23.90;54.47;99833.22;5010692;28;20442;-67
2023/06/09 03:55:56;;;;;;;8.43;4.63;;;;;;;23.89;54.58;99828.69;5017516;28;20796;-67
2023/06/09 03:58:22;;;;;;;9.40;4.40;;;;;;;23.89;54.58;99830.75;5027649;28;20662;-67
2023/06/09 04:00:48;;;;;;;5.67;3.90;;;;;;;23.90;54.91;99836.09;5014903;28;20264;-66
2023/06/09 04:03:13;;;;;;;6.00;4.63;;;;;;;23.89;54.49;99839.41;5010042;28;20435;-67
2023/06/09 04:05:39;;;;;;;5.87;4.43;;;;;;;23.87;54.85;99831.16;5009767;28;20200;-67
2023/06/09 04:08:04;;;;;;;7.83;4.97;;;;;;;23.89;54.57;99837.31;5009157;28;20219;-67
2023/06/09 04:10:29;;;;;;;6.63;4.87;;;;;;;23.88;54.51;99844.31;5009984;28;20212;-67
2023/06/09 04:12:55;;;;;;;6.90;4.73;;;;;;;23.87;54.79;99839.81;5028566;28;20185;-66
2023/06/09 04:15:20;;;;;;;7.30;4.77;;;;;;;23.87;54.58;99851.34;5024608;28;20224;-66
2023/06/09 04:17:46;;;;;;;6.60;4.77;;;;;;;23.87;54.97;99844.72;4992890;28;20185;-67
2023/06/09 04:20:12;;;;;;;6.40;5.13;;;;;;;23.86;54.76;99848.88;4991593;28;20182;-66
2023/06/09 04:22:46;;;;;;;7.77;4.87;;;;;;;23.87;54.49;99847.63;4989348;28;20197;-67
2023/06/09 04:25:11;;;;;;;6.73;4.60;;;;;;;23.86;54.79;99849.69;4971569;28;20412;-67
2023/06/09 04:27:37;;;;;;;7.20;4.47;;;;;;;23.87;55.03;99850.50;4991244;28;20456;-66
2023/06/09 04:30:04;;;;;;;6.77;5.17;;;;;;;23.87;55.09;99842.69;4971800;28;20510;-67
2023/06/09 04:32:32;;;;;;;5.77;4.70;;;;;;;23.85;54.58;99839.41;4956837;28;20225;-66
2023/06/09 04:34:58;;;;;;;6.50;4.57;;;;;;;23.85;54.80;99848.06;5007598;28;20428;-67
2023/06/09 04:37:25;;;;;;;5.73;4.40;;;;;;;23.86;54.94;99841.06;4975113;28;20435;-67
2023/06/09 04:39:50;;;;;;;9.30;4.17;;;;;;;23.88;54.74;99852.97;4997395;28;20544;-67
2023/06/09 04:42:19;;;;;;;7.20;4.80;;;;;;;23.89;54.65;99845.19;4990709;28;20929;-67
2023/06/09 04:44:50;;;;;;;6.27;5.20;;;;;;;23.89;54.38;99848.84;5016746;28;20280;-67
2023/06/09 04:47:20;;;;;;;7.13;4.80;;;;;;;23.91;54.58;99852.16;4989793;28;20992;-67
2023/06/09 04:49:46;;;;;;;6.00;4.67;;;;;;;23.91;54.59;99857.09;4987886;28;20436;-67
2023/06/09 04:52:12;;;;;;;5.23;4.30;;;;;;;23.91;54.72;99862.84;4987798;28;20944;-67
2023/06/09 04:54:38;;;;;;;5.97;4.70;;;;;;;23.90;55.09;99864.94;4990255;28;20467;-67
2023/06/09 04:57:08;;;;;;;7.17;4.93;;;;;;;23.90;54.73;99867.00;4954448;28;20785;-68
2023/06/09 04:59:33;;;;;;;5.70;4.10;;;;;;;23.88;55.04;99867.38;4999371;28;20259;-67
2023/06/09 05:01:59;;;;;;;6.70;4.80;;;;;;;23.89;54.89;99866.16;4962891;28;20468;-67
2023/06/09 05:04:24;;;;;;;5.80;4.20;;;;;;;23.90;55.35;99870.72;4991032;28;20190;-66
2023/06/09 05:06:50;;;;;;;6.57;5.20;;;;;;;23.89;55.06;99876.91;4988544;28;20188;-67
2023/06/09 05:09:16;;;;;;;8.20;5.10;;;;;;;23.90;54.40;99879.34;4973244;28;20201;-67
2023/06/09 05:11:41;;;;;;;6.70;5.40;;;;;;;23.90;55.16;99867.81;5007482;28;20445;-67
2023/06/09 05:14:07;;;;;;;7.73;4.57;;;;;;;23.90;54.98;99876.47;5027055;28;20195;-66
2023/06/09 05:16:33;;;;;;;6.10;4.73;;;;;;;23.91;55.27;99877.28;5005864;28;20237;-67
2023/06/09 05:18:59;;;;;;;6.97;5.10;;;;;;;23.90;55.13;99873.59;4994107;28;20192;-67
2023/06/09 05:21:24;;;;;;;8.07;4.90;;;;;;;23.92;55.13;99871.09;5015446;28;20846;-67
2023/06/09 05:23:50;;;;;;;5.17;4.10;;;;;;;23.93;54.99;99872.72;5023733;28;20643;-67
2023/06/09 05:26:17;;;;;;;5.40;4.10;;;;;;;23.95;55.04;99872.28;5021533;28;20188;-67
2023/06/09 05:28:43;;;;;;;5.87;4.30;;;;;;;23.95;54.94;99863.63;5025257;28;20173;-67
2023/06/09 05:31:09;;;;;;;5.80;4.40;;;;;;;23.94;55.45;99868.56;5017720;28;20440;-67
2023/06/09 05:33:35;;;;;;;8.47;5.30;;;;;;;23.93;55.25;99872.72;5018060;28;20408;-68
2023/06/09 05:36:01;;;;;;;7.97;5.20;;;;;;;23.91;55.62;99875.22;5020333;28;20752;-67
2023/06/09 05:38:27;;;;;;;8.20;5.40;;;;;;;23.91;55.00;99872.34;5016374;28;20436;-68
2023/06/09 05:40:52;;;;;;;6.43;5.20;;;;;;;23.91;55.29;99872.34;5024355;28;20180;-68
2023/06/09 05:43:18;;;;;;;6.30;4.90;;;;;;;23.90;55.19;99876.47;5033606;28;20624;-67
2023/06/09 05:45:44;;;;;;;6.30;4.83;;;;;;;23.91;54.81;99880.16;5012705;28;20187;-67
2023/06/09 05:48:09;;;;;;;5.50;4.53;;;;;;;23.90;55.17;99882.25;5040190;28;20219;-67
2023/06/09 05:50:35;;;;;;;8.93;5.17;;;;;;;23.91;55.38;99886.75;5017971;28;20683;-68
2023/06/09 05:53:00;;;;;;;6.90;4.60;;;;;;;23.90;55.41;99890.88;5019485;28;20246;-67
2023/06/09 05:55:26;;;;;;;6.13;4.87;;;;;;;23.91;55.17;99888.81;5020065;28;20227;-67
2023/06/09 05:57:52;;;;;;;6.47;4.27;;;;;;;23.90;55.53;99890.06;5021258;28;20191;-68
2023/06/09 06:00:18;;;;;;;5.43;4.43;;;;;;;23.89;54.87;99883.47;5014061;28;20439;-68
2023/06/09 06:02:44;;;;;;;7.50;5.03;;;;;;;23.90;55.89;99896.66;5011460;28;20188;-67
2023/06/09 06:05:10;;;;;;;6.53;5.30;;;;;;;23.85;54.96;99891.31;5034396;28;20439;-68
2023/06/09 06:07:36;;;;;;;7.80;5.63;;;;;;;24.06;56.33;99896.91;5023655;28;20444;-68
2023/06/09 06:10:05;;;;;;;9.40;7.00;;;;;;;24.38;57.25;99887.88;5019340;28;20817;-67
2023/06/09 06:12:34;;;;;;;65.13;12.40;;;;;;;24.64;58.52;99885.06;5022076;28;20185;-67
2023/06/09 06:14:59;;;;;;;37.40;11.40;;;;;;;24.56;57.79;99888.47;5020643;28;20558;-67
2023/06/09 06:17:25;;;;;;;21.20;6.47;;;;;;;24.34;57.20;99882.13;5025410;28;20498;-67
2023/06/09 06:19:51;;;;;;;12.40;6.50;;;;;;;24.23;56.75;99883.53;5026950;28;20550;-65
2023/06/09 06:22:16;;;;;;;15.17;7.00;;;;;;;24.11;55.62;99889.81;5026358;28;20204;-66
2023/06/09 06:24:41;;;;;;;15.00;6.50;;;;;;;24.13;56.26;99878.69;5022515;28;20559;-65
2023/06/09 06:27:07;;;;;;;14.20;6.37;;;;;;;24.10;55.78;99889.03;5026412;28;20187;-66
2023/06/09 06:29:33;;;;;;;13.90;6.67;;;;;;;24.03;54.63;99894.84;5029929;28;20184;-67
2023/06/09 06:31:59;;;;;;;9.73;6.27;;;;;;;24.05;55.57;99891.56;5034657;28;20175;-66
2023/06/09 06:34:25;;;;;;;11.97;6.73;;;;;;;24.05;55.30;99892.38;5034027;28;20226;-68
2023/06/09 06:36:52;;;;;;;9.77;6.57;;;;;;;24.01;55.53;99896.53;5030369;28;20454;-66
2023/06/09 06:39:17;;;;;;;9.03;5.97;;;;;;;24.09;55.54;99893.13;5047412;28;20200;-66
2023/06/09 06:41:43;;;;;;;12.10;6.40;;;;;;;24.15;55.92;99897.22;5040152;28;20455;-67
2023/06/09 06:44:08;;;;;;;8.23;5.90;;;;;;;24.16;56.29;99893.06;5013824;28;20195;-67
2023/06/09 06:46:34;;;;;;;12.37;6.03;;;;;;;24.21;56.21;99895.50;5028583;28;20986;-68
2023/06/09 06:49:00;;;;;;;9.37;6.17;;;;;;;24.25;56.53;99901.22;5037033;28;20156;-66
2023/06/09 06:51:25;;;;;;;13.57;6.27;;;;;;;24.29;57.12;99896.22;5017434;28;20180;-66
2023/06/09 06:53:51;;;;;;;9.40;6.20;;;;;;;24.26;56.78;99897.91;5013627;28;20908;-68
2023/06/09 06:56:16;;;;;;;8.53;6.33;;;;;;;24.19;57.05;99897.97;5024550;28;20184;-68
2023/06/09 06:58:42;;;;;;;7.63;6.17;;;;;;;24.10;55.52;99900.56;5032492;28;20251;-66
2023/06/09 07:01:07;;;;;;;10.00;6.73;;;;;;;24.12;56.22;99903.84;5002657;28;20208;-67
2023/06/09 07:03:35;;;;;;;10.50;6.00;;;;;;;24.13;55.58;99911.22;5030562;28;20184;-68
2023/06/09 07:06:01;;;;;;;8.47;6.40;;;;;;;24.16;55.39;99907.50;5017531;28;20924;-68
2023/06/09 07:08:27;;;;;;;8.13;5.90;;;;;;;24.15;55.34;99911.63;5023950;28;20427;-66
2023/06/09 07:10:52;;;;;;;10.93;6.20;;;;;;;24.12;55.52;99909.59;5024797;28;20470;-68
2023/06/09 07:13:17;;;;;;;10.90;6.30;;;;;;;24.08;56.05;99914.56;5026333;28;20189;-68
2023/06/09 07:15:43;;;;;;;8.40;6.70;;;;;;;24.04;55.79;99919.56;5027120;28;20212;-68
2023/06/09 07:18:09;;;;;;;10.10;6.10;;;;;;;24.01;55.88;99914.66;5029122;28;20676;-68
2023/06/09 07:20:34;;;;;;;12.77;7.10;;;;;;;23.99;55.14;99917.13;5028862;28;20250;-68
2023/06/09 07:23:00;;;;;;;10.57;6.40;;;;;;;23.93;54.85;99918.84;5029466;28;20238;-67
2023/06/09 07:25:25;;;;;;;16.07;6.90;;;;;;;23.94;55.70;99914.72;5040216;28;20196;-68
2023/06/09 07:27:51;;;;;;;8.97;6.03;;;;;;;23.92;55.09;99916.38;5017354;28;20581;-68
2023/06/09 07:30:16;;;;;;;15.50;7.27;;;;;;;23.91;55.05;99906.09;5004606;28;20189;-68
2023/06/09 07:32:42;;;;;;;14.67;6.60;;;;;;;23.90;55.44;99910.25;5036363;28;20180;-68
2023/06/09 07:35:12;;;;;;;11.10;6.10;;;;;;;23.92;55.82;99922.16;5045340;28;20176;-68
2023/06/09 07:37:42;;;;;;;8.57;6.40;;;;;;;23.90;55.12;99924.66;5012011;28;20258;-68
2023/06/09 07:40:09;;;;;;;8.93;6.10;;;;;;;23.87;55.34;99914.78;5029154;28;20452;-68
2023/06/09 07:42:34;;;;;;;10.60;6.20;;;;;;;23.89;56.13;99918.06;5028552;28;20460;-67
2023/06/09 07:45:00;;;;;;;9.93;5.70;;;;;;;23.90;56.20;99922.59;5029909;28;20501;-71
2023/06/09 07:47:25;;;;;;;17.17;6.63;;;;;;;23.94;56.59;99913.91;5010591;28;20185;-68
2023/06/09 07:49:51;;;;;;;13.43;7.20;;;;;;;23.94;57.12;99914.72;5024785;28;20188;-68
2023/06/09 07:52:16;;;;;;;9.33;6.67;;;;;;;23.97;57.17;99913.88;4978402;28;20286;-68
2023/06/09 07:54:42;;;;;;;14.37;7.03;;;;;;;23.97;57.33;99910.16;5010710;28;20227;-67
2023/06/09 07:57:07;;;;;;;9.80;6.53;;;;;;;23.97;57.17;99907.28;5012636;28;20189;-68
2023/06/09 07:59:32;;;;;;;11.03;6.43;;;;;;;23.99;57.27;99907.69;5011988;28;20176;-67
2023/06/09 08:01:58;;;;;;;9.73;6.43;;;;;;;23.99;57.50;99905.59;5010479;28;20633;-67
2023/06/09 08:04:24;;;;;;;18.20;6.47;;;;;;;24.00;57.12;99900.66;5018445;28;20257;-68
2023/06/09 08:06:49;;;;;;;9.60;5.63;;;;;;;23.98;57.07;99898.19;5025285;28;20255;-68
2023/06/09 08:09:15;;;;;;;12.40;6.60;;;;;;;23.99;57.48;99899.84;5027708;28;20726;-67
2023/06/09 08:11:40;;;;;;;10.60;5.80;;;;;;;24.00;57.63;99892.84;5009344;28;20632;-68
2023/06/09 08:14:06;;;;;;;10.60;6.80;;;;;;;23.99;57.44;99899.84;5018417;28;20552;-67
2023/06/09 08:16:32;;;;;;;12.23;5.90;;;;;;;24.00;57.49;99903.56;5017511;28;20221;-68
2023/06/09 08:18:57;;;;;;;7.93;5.97;;;;;;;24.01;57.27;99897.34;5006998;28;20195;-68
2023/06/09 08:21:22;;;;;;;11.50;6.17;;;;;;;24.00;57.66;99889.97;5009816;28;20196;-68
2023/06/09 08:23:48;;;;;;;10.97;7.17;;;;;;;23.99;57.53;99893.28;4992770;28;20176;-68
2023/06/09 08:26:13;;;;;;;8.60;6.20;;;;;;;24.00;57.44;99892.00;5020434;28;20908;-66
2023/06/09 08:28:39;;;;;;;10.27;6.33;;;;;;;24.00;57.71;99901.50;5009122;28;20169;-66
2023/06/09 08:31:06;;;;;;;7.97;6.30;;;;;;;23.99;57.65;99891.19;5012065;28;20594;-66
2023/06/09 08:33:35;;;;;;;12.27;6.10;;;;;;;23.99;57.73;99885.41;5013465;28;20603;-66
2023/06/09 08:36:04;;;;;;;11.43;6.00;;;;;;;23.99;57.59;99885.41;5010751;28;20855;-66
2023/06/09 08:38:33;;;;;;;14.13;6.10;;;;;;;23.99;57.85;99882.53;5012707;28;20562;-68
2023/06/09 08:41:06;;;;;;;9.67;6.13;;;;;;;24.00;57.45;99881.31;5016545;28;20439;-67
2023/06/09 08:43:32;;;;;;;10.37;6.33;;;;;;;24.00;57.64;99881.31;5012253;28;20447;-67
2023/06/09 08:45:58;;;;;;;10.80;5.53;;;;;;;24.00;57.93;99881.31;5010821;28;20418;-67
2023/06/09 08:48:23;;;;;;;9.70;6.80;;;;;;;23.99;57.68;99879.66;5025906;28;20244;-67
2023/06/09 08:50:49;;;;;;;9.93;6.57;;;;;;;23.99;57.56;99882.53;5018335;28;20440;-67
2023/06/09 08:53:14;;;;;;;8.43;6.50;;;;;;;24.01;57.55;99879.22;5012859;28;20192;-66
2023/06/09 08:55:40;;;;;;;9.73;6.20;;;;;;;23.99;57.99;99871.00;5025485;28;20923;-66
2023/06/09 08:58:05;;;;;;;9.50;6.00;;;;;;;23.99;57.70;99873.88;5024554;28;20181;-66
2023/06/09 09:00:31;;;;;;;9.57;7.07;;;;;;;23.98;57.45;99880.91;5013384;28;20191;-66
2023/06/09 09:02:57;;;;;;;8.90;6.30;;;;;;;23.99;57.70;99879.66;5010584;28;20209;-66
2023/06/09 09:05:22;;;;;;;9.00;6.13;;;;;;;23.99;57.63;99873.09;5014416;28;20196;-67
2023/06/09 09:07:49;;;;;;;8.57;6.30;;;;;;;24.00;57.68;99864.00;5021201;28;20185;-66
2023/06/09 09:10:15;;;;;;;8.50;6.30;;;;;;;23.99;57.89;99870.19;5008999;28;20293;-68
2023/06/09 09:12:48;;;;;;;11.73;6.43;;;;;;;24.00;57.53;99871.81;5029001;28;20444;-67
2023/06/09 09:15:13;;;;;;;8.70;5.90;;;;;;;24.00;57.61;99854.53;5010295;28;20232;-67
2023/06/09 09:17:41;;;;;;;9.90;5.80;;;;;;;24.00;57.67;99857.41;5007734;28;20428;-67
2023/06/09 09:20:08;;;;;;;13.83;6.17;;;;;;;24.01;57.86;99859.88;5012000;28;20647;-67
2023/06/09 09:22:46;;;;;;;9.53;6.80;;;;;;;24.01;57.57;99850.38;5028898;28;20454;-67
2023/06/09 09:25:22;;;;;;;14.27;6.73;;;;;;;24.02;58.01;99846.25;5028493;28;20422;-66
2023/06/09 09:28:20;;;;;;;9.07;6.40;;;;;;;24.02;57.74;99852.00;5026016;28;20561;-67
2023/06/09 09:30:55;;;;;;;9.67;6.13;;;;;;;24.02;57.95;99840.47;4974803;28;20528;-67
2023/06/09 09:33:23;;;;;;;7.30;5.80;;;;;;;24.03;58.12;99842.94;5030408;28;20802;-67
2023/06/09 09:35:51;;;;;;;13.70;6.03;;;;;;;24.03;57.92;99842.94;5028936;28;20434;-67
2023/06/09 09:38:18;;;;;;;8.67;5.70;;;;;;;24.03;58.02;99845.03;5024825;28;20437;-67
2023/06/09 09:40:48;;;;;;;11.20;6.50;;;;;;;24.04;57.94;99835.13;5008550;28;20441;-67
2023/06/09 09:43:14;;;;;;;10.23;6.10;;;;;;;24.04;58.22;99832.22;5026793;28;20447;-67
2023/06/09 09:45:42;;;;;;;7.63;6.00;;;;;;;24.03;58.09;99831.41;5019173;28;20424;-67
2023/06/09 09:48:11;;;;;;;8.50;5.73;;;;;;;24.04;58.05;99832.22;5022061;28;20424;-67
2023/06/09 09:50:41;;;;;;;10.13;6.20;;;;;;;24.04;58.00;99827.25;5012729;28;20515;-67
2023/06/09 09:53:07;;;;;;;8.40;5.60;;;;;;;24.03;57.72;99822.75;5007772;28;20472;-67
2023/06/09 09:55:37;;;;;;;9.00;6.23;;;;;;;24.03;57.98;99819.06;5013732;28;20510;-67
2023/06/09 09:58:06;;;;;;;9.10;6.03;;;;;;;24.04;57.62;99818.63;5005699;28;20201;-67
2023/06/09 10:00:35;;;;;;;8.43;6.37;;;;;;;24.04;57.91;99809.97;5006492;28;20439;-67
2023/06/09 10:03:02;;;;;;;10.07;5.73;;;;;;;24.05;57.68;99816.56;5023694;28;20472;-67
2023/06/09 10:05:30;;;;;;;8.87;5.70;;;;;;;24.05;57.91;99820.28;5012835;28;20451;-67
2023/06/09 10:07:56;;;;;;;7.10;5.47;;;;;;;24.06;57.85;99801.72;5020600;28;20427;-67
2023/06/09 10:10:21;;;;;;;9.80;5.90;;;;;;;24.06;58.15;99813.25;5023023;28;20471;-68
2023/06/09 10:12:47;;;;;;;6.83;5.17;;;;;;;24.05;57.88;99802.97;5036657;28;20161;-68
2023/06/09 10:15:12;;;;;;;8.40;6.27;;;;;;;24.05;57.95;99797.19;5004164;28;21169;-67
2023/06/09 10:17:38;;;;;;;9.70;6.50;;;;;;;24.05;58.10;99800.09;5025496;28;20185;-67
2023/06/09 10:20:05;;;;;;;7.43;5.80;;;;;;;24.05;57.95;99800.09;5031704;28;20188;-68
2023/06/09 10:22:30;;;;;;;9.13;6.07;;;;;;;24.06;57.89;99800.88;5023101;28;20205;-67
2023/06/09 10:24:55;;;;;;;9.73;6.13;;;;;;;24.06;57.83;99795.94;5014903;28;20443;-67
2023/06/09 10:27:21;;;;;;;9.27;5.80;;;;;;;24.06;57.84;99801.72;5015005;28;20183;-67
2023/06/09 10:29:47;;;;;;;7.33;5.77;;;;;;;24.06;57.77;99795.94;5024131;28;20204;-68
2023/06/09 10:32:12;;;;;;;9.73;6.37;;;;;;;24.06;57.76;99790.19;4999407;28;20200;-67
2023/06/09 10:34:38;;;;;;;8.37;5.80;;;;;;;24.07;57.86;99783.16;4995299;28;20541;-67
2023/06/09 10:37:06;;;;;;;6.97;5.23;;;;;;;24.07;57.73;99790.97;5023559;28;20173;-67
2023/06/09 10:39:46;;;;;;;12.30;5.43;;;;;;;24.06;57.86;99784.41;5029477;28;20292;-67
2023/06/09 10:42:29;;;;;;;8.17;5.20;;;;;;;24.06;57.82;99781.53;5023732;28;20466;-67
2023/06/09 10:45:03;;;;;;;10.10;5.80;;;;;;;24.07;57.91;99785.22;5021059;28;20947;-67
2023/06/09 10:47:48;;;;;;;6.93;5.03;;;;;;;24.07;57.75;99774.50;5012915;28;20981;-67
2023/06/09 10:50:32;;;;;;;7.40;5.93;;;;;;;24.08;57.53;99773.25;5019966;28;20441;-67
2023/06/09 10:52:58;;;;;;;11.93;5.77;;;;;;;24.09;57.60;99769.09;5028606;28;20513;-68
2023/06/09 10:55:27;;;;;;;7.10;5.20;;;;;;;24.09;57.23;99768.31;5030372;28;20431;-67
2023/06/09 10:57:52;;;;;;;7.17;5.83;;;;;;;24.09;57.21;99765.41;5013480;28;20446;-67
2023/06/09 11:00:18;;;;;;;7.10;5.60;;;;;;;24.08;57.22;99755.16;5013706;28;20462;-67
2023/06/09 11:02:45;;;;;;;9.00;5.97;;;;;;;24.09;56.97;99759.66;5020738;28;20211;-67
2023/06/09 11:05:11;;;;;;;9.80;5.87;;;;;;;24.08;56.56;99755.94;5033244;28;20645;-67
2023/06/09 11:07:41;;;;;;;7.07;4.80;;;;;;;24.07;56.91;99745.66;5029374;28;20442;-67
2023/06/09 11:10:06;;;;;;;7.60;5.23;;;;;;;24.08;57.03;99750.16;5015442;28;20204;-67
2023/06/09 11:12:42;;;;;;;5.60;5.00;;;;;;;24.09;56.72;99748.13;5011379;28;20803;-67
2023/06/09 11:15:09;;;;;;;8.00;5.20;;;;;;;24.08;56.98;99747.28;5021085;28;20220;-67
2023/06/09 11:17:41;;;;;;;9.37;5.47;;;;;;;24.08;56.90;99743.59;5025197;28;20454;-67
2023/06/09 11:20:08;;;;;;;7.80;5.90;;;;;;;24.09;56.56;99742.34;5026567;28;20443;-68
2023/06/09 11:22:54;;;;;;;7.53;4.97;;;;;;;24.09;56.42;99745.22;5023668;28;20487;-67
2023/06/09 11:25:20;;;;;;;9.43;5.40;;;;;;;24.12;56.32;99742.28;5002816;28;20452;-68
2023/06/09 11:28:05;;;;;;;6.80;5.00;;;;;;;24.11;56.42;99739.84;5016677;28;20424;-67
2023/06/09 11:30:32;;;;;;;6.90;4.87;;;;;;;24.11;56.41;99737.78;5016586;28;20242;-67
2023/06/09 11:32:58;;;;;;;6.93;4.80;;;;;;;24.12;56.38;99735.69;5007658;28;20498;-67